createdAt,value
2023-04-14T00:00:31.840Z,0.00
2023-04-14T00:01:31.828Z,0.00
2023-04-14T00:02:31.925Z,0.00
2023-04-14T00:03:32.114Z,0.00
2023-04-14T00:04:31.903Z,0.00
2023-04-14T00:05:31.801Z,0.00
2023-04-14T00:06:31.783Z,0.00
2023-04-14T00:07:31.771Z,0.00
2023-04-14T00:08:31.759Z,0.00
2023-04-14T00:09:31.749Z,0.00
2023-04-14T00:10:31.733Z,0.00
2023-04-14T00:11:31.749Z,0.00
2023-04-14T00:12:31.718Z,0.00
2023-04-14T00:13:31.727Z,0.00
2023-04-14T00:14:31.702Z,0.00
2023-04-14T00:15:31.682Z,0.00
2023-04-14T00:16:31.799Z,0.00
2023-04-14T00:17:31.697Z,0.00
2023-04-14T00:18:31.678Z,0.00
2023-04-14T00:19:31.652Z,0.00
2023-04-14T00:20:31.652Z,0.00
2023-04-14T00:21:31.646Z,0.00
2023-04-14T00:22:31.601Z,0.00
2023-04-14T00:23:31.631Z,0.00
2023-04-14T00:24:31.593Z,0.00
2023-04-14T00:25:31.597Z,0.00
2023-04-14T00:26:31.575Z,0.00
2023-04-14T00:27:31.554Z,0.00
2023-04-14T00:28:31.556Z,0.00
2023-04-14T00:29:31.585Z,0.00
2023-04-14T00:30:31.569Z,0.00
2023-04-14T00:31:31.573Z,0.00
2023-04-14T00:32:31.518Z,0.00
2023-04-14T00:33:31.494Z,0.00
2023-04-14T00:34:31.486Z,0.00
2023-04-14T00:35:31.479Z,0.00
2023-04-14T00:36:31.455Z,0.00
2023-04-14T00:37:31.447Z,0.00
2023-04-14T00:38:31.484Z,0.00
2023-04-14T00:39:31.432Z,0.00
2023-04-14T00:40:31.418Z,0.00
2023-04-14T00:41:31.407Z,0.00
2023-04-14T00:42:31.411Z,0.00
2023-04-14T00:43:31.397Z,0.00
2023-04-14T00:44:31.402Z,0.00
2023-04-14T00:45:31.378Z,0.00
2023-04-14T00:46:31.384Z,0.00
2023-04-14T00:47:31.384Z,0.00
2023-04-14T00:48:31.337Z,0.00
2023-04-14T00:49:31.352Z,0.00
2023-04-14T00:50:31.313Z,0.00
2023-04-14T00:51:31.316Z,0.00
2023-04-14T00:52:31.294Z,0.00
2023-04-14T00:53:31.298Z,0.00
2023-04-14T00:54:31.274Z,0.00
2023-04-14T00:55:31.264Z,0.00
2023-04-14T00:56:31.242Z,0.00
2023-04-14T00:57:31.393Z,0.00
2023-04-14T00:58:31.228Z,0.00
2023-04-14T00:59:31.222Z,0.00
2023-04-14T01:00:31.237Z,0.00
2023-04-14T01:01:31.227Z,0.00
2023-04-14T01:02:31.390Z,0.00
2023-04-14T01:03:31.303Z,0.00
2023-04-14T01:04:40.760Z,0.00
2023-04-14T01:05:32.158Z,0.00
2023-04-14T01:06:31.156Z,0.00
2023-04-14T01:07:31.129Z,0.00
2023-04-14T01:08:31.124Z,0.00
2023-04-14T01:09:31.123Z,0.00
2023-04-14T01:10:31.108Z,0.00
2023-04-14T01:11:31.113Z,0.00
2023-04-14T01:12:31.089Z,0.00
2023-04-14T01:13:31.084Z,0.00
2023-04-14T01:14:31.084Z,0.00
2023-04-14T01:15:31.061Z,0.00
2023-04-14T01:16:31.172Z,0.00
2023-04-14T01:17:31.126Z,0.00
2023-04-14T01:18:31.013Z,0.00
2023-04-14T01:19:31.027Z,0.00
2023-04-14T01:20:31.001Z,0.00
2023-04-14T01:21:30.973Z,0.00
2023-04-14T01:22:30.990Z,0.00
2023-04-14T01:23:30.982Z,0.00
2023-04-14T01:24:30.949Z,0.00
2023-04-14T01:25:30.929Z,0.00
2023-04-14T01:26:30.939Z,0.00
2023-04-14T01:27:30.911Z,0.00
2023-04-14T01:28:31.061Z,0.00
2023-04-14T01:29:30.893Z,0.00
2023-04-14T01:30:30.901Z,0.00
2023-04-14T01:31:30.866Z,0.00
2023-04-14T01:32:30.898Z,0.00
2023-04-14T01:33:30.847Z,0.00
2023-04-14T01:34:30.812Z,0.00
2023-04-14T01:35:30.823Z,0.00
2023-04-14T01:36:30.806Z,0.00
2023-04-14T01:37:30.848Z,0.00
2023-04-14T01:38:30.789Z,0.00
2023-04-14T01:39:30.777Z,0.00
2023-04-14T01:40:30.775Z,0.00
2023-04-14T01:41:30.750Z,0.00
2023-04-14T01:42:30.755Z,0.00
2023-04-14T01:43:30.752Z,0.00
2023-04-14T01:44:30.727Z,0.00
2023-04-14T01:45:30.721Z,0.00
2023-04-14T01:46:30.707Z,0.00
2023-04-14T01:47:30.705Z,0.00
2023-04-14T01:48:30.690Z,0.00
2023-04-14T01:49:30.718Z,0.00
2023-04-14T01:50:30.646Z,0.00
2023-04-14T01:51:30.672Z,0.00
2023-04-14T01:52:30.665Z,0.00
2023-04-14T01:53:30.647Z,0.00
2023-04-14T01:54:30.607Z,0.00
2023-04-14T01:55:30.598Z,0.00
2023-04-14T01:56:30.603Z,0.00
2023-04-14T01:57:30.594Z,0.00
2023-04-14T01:58:30.564Z,0.00
2023-04-14T01:59:30.591Z,0.00
2023-04-14T02:00:30.558Z,0.00
2023-04-14T02:01:30.678Z,0.00
2023-04-14T02:02:30.674Z,0.00
2023-04-14T02:03:30.633Z,0.00
2023-04-14T02:04:30.511Z,0.00
2023-04-14T02:05:30.492Z,0.00
2023-04-14T02:06:30.494Z,0.00
2023-04-14T02:07:30.484Z,0.00
2023-04-14T02:08:30.492Z,0.00
2023-04-14T02:09:30.458Z,0.00
2023-04-14T02:10:30.459Z,0.00
2023-04-14T02:11:30.465Z,0.00
2023-04-14T02:12:30.442Z,0.00
2023-04-14T02:13:30.410Z,0.00
2023-04-14T02:14:30.407Z,0.00
2023-04-14T02:15:30.394Z,0.00
2023-04-14T02:16:30.406Z,0.00
2023-04-14T02:17:30.438Z,0.00
2023-04-14T02:18:30.361Z,0.00
2023-04-14T02:19:30.352Z,0.00
2023-04-14T02:20:30.370Z,0.00
2023-04-14T02:21:30.353Z,0.00
2023-04-14T02:22:30.323Z,0.00
2023-04-14T02:23:30.320Z,0.00
2023-04-14T02:24:30.299Z,0.00
2023-04-14T02:25:30.290Z,0.00
2023-04-14T02:26:30.276Z,0.00
2023-04-14T02:27:30.267Z,0.00
2023-04-14T02:28:30.347Z,0.00
2023-04-14T02:29:30.253Z,0.00
2023-04-14T02:30:30.221Z,0.00
2023-04-14T02:31:30.266Z,0.00
2023-04-14T02:32:30.251Z,0.00
2023-04-14T02:33:30.206Z,0.00
2023-04-14T02:34:30.199Z,0.00
2023-04-14T02:35:30.181Z,0.00
2023-04-14T02:36:30.158Z,0.00
2023-04-14T02:37:30.163Z,0.00
2023-04-14T02:38:30.148Z,0.00
2023-04-14T02:39:30.154Z,0.00
2023-04-14T02:40:30.149Z,0.00
2023-04-14T02:41:30.131Z,0.00
2023-04-14T02:42:30.117Z,0.00
2023-04-14T02:43:30.092Z,0.00
2023-04-14T02:44:30.073Z,0.00
2023-04-14T02:45:30.079Z,0.00
2023-04-14T02:46:30.105Z,0.00
2023-04-14T02:47:30.118Z,0.00
2023-04-14T02:48:30.036Z,0.00
2023-04-14T02:49:30.059Z,0.00
2023-04-14T02:50:30.018Z,0.00
2023-04-14T02:51:30.040Z,0.00
2023-04-14T02:52:30.011Z,0.00
2023-04-14T02:53:29.993Z,0.00
2023-04-14T02:54:29.997Z,0.00
2023-04-14T02:55:29.965Z,0.00
2023-04-14T02:56:29.963Z,0.00
2023-04-14T02:57:29.980Z,0.00
2023-04-14T02:58:29.955Z,0.00
2023-04-14T02:59:29.928Z,0.00
2023-04-14T03:00:29.938Z,0.00
2023-04-14T03:01:30.016Z,0.00
2023-04-14T03:02:30.014Z,0.00
2023-04-14T03:03:29.976Z,0.00
2023-04-14T03:04:29.938Z,0.00
2023-04-14T03:05:29.872Z,0.00
2023-04-14T03:06:29.887Z,0.00
2023-04-14T03:07:29.859Z,0.00
2023-04-14T03:08:29.829Z,0.00
2023-04-14T03:09:29.840Z,0.00
2023-04-14T03:10:29.832Z,0.00
2023-04-14T03:11:29.812Z,0.00
2023-04-14T03:12:29.794Z,0.00
2023-04-14T03:13:29.802Z,0.00
2023-04-14T03:14:29.785Z,0.00
2023-04-14T03:15:29.755Z,0.00
2023-04-14T03:16:29.866Z,0.00
2023-04-14T03:17:29.863Z,0.00
2023-04-14T03:18:29.744Z,0.00
2023-04-14T03:19:29.762Z,0.00
2023-04-14T03:20:29.714Z,0.00
2023-04-14T03:21:29.692Z,0.00
2023-04-14T03:22:29.683Z,0.00
2023-04-14T03:23:29.735Z,0.00
2023-04-14T03:24:29.670Z,0.00
2023-04-14T03:25:29.645Z,0.00
2023-04-14T03:26:29.635Z,0.00
2023-04-14T03:27:29.650Z,0.00
2023-04-14T03:28:29.623Z,0.00
2023-04-14T03:29:29.604Z,0.00
2023-04-14T03:30:29.607Z,0.00
2023-04-14T03:31:29.645Z,0.00
2023-04-14T03:32:29.589Z,0.00
2023-04-14T03:33:29.595Z,0.00
2023-04-14T03:34:29.566Z,0.00
2023-04-14T03:35:29.572Z,0.00
2023-04-14T03:36:29.552Z,0.00
2023-04-14T03:37:29.546Z,0.00
2023-04-14T03:38:29.526Z,0.00
2023-04-14T03:39:29.502Z,0.00
2023-04-14T03:40:29.489Z,0.00
2023-04-14T03:41:29.495Z,0.00
2023-04-14T03:42:29.498Z,0.00
2023-04-14T03:43:29.509Z,0.00
2023-04-14T03:44:29.450Z,0.00
2023-04-14T03:45:29.435Z,0.00
2023-04-14T03:46:29.487Z,0.00
2023-04-14T03:47:29.454Z,0.00
2023-04-14T03:48:29.401Z,0.00
2023-04-14T03:49:29.418Z,0.00
2023-04-14T03:50:29.375Z,0.00
2023-04-14T03:51:29.373Z,0.00
2023-04-14T03:52:29.392Z,0.00
2023-04-14T03:53:29.359Z,0.00
2023-04-14T03:54:29.362Z,0.00
2023-04-14T03:55:29.342Z,0.00
2023-04-14T03:56:29.320Z,0.00
2023-04-14T03:57:29.344Z,0.00
2023-04-14T03:58:29.293Z,0.00
2023-04-14T03:59:29.320Z,0.00
2023-04-14T04:00:29.284Z,0.00
2023-04-14T04:01:29.263Z,0.00
2023-04-14T04:02:29.380Z,0.00
2023-04-14T04:03:29.574Z,0.00
2023-04-14T04:04:29.299Z,0.00
2023-04-14T04:05:29.243Z,0.00
2023-04-14T04:06:29.587Z,0.00
2023-04-14T04:07:29.211Z,0.00
2023-04-14T04:08:29.188Z,0.00
2023-04-14T04:09:29.249Z,0.00
2023-04-14T04:10:29.188Z,0.00
2023-04-14T04:11:29.327Z,0.00
2023-04-14T04:12:29.188Z,0.00
2023-04-14T04:13:29.150Z,0.00
2023-04-14T04:14:29.157Z,0.00
2023-04-14T04:15:29.132Z,0.00
2023-04-14T04:16:29.140Z,0.00
2023-04-14T04:17:29.130Z,0.00
2023-04-14T04:18:29.093Z,0.00
2023-04-14T04:19:29.084Z,0.00
2023-04-14T04:20:29.347Z,0.00
2023-04-14T04:21:29.066Z,0.00
2023-04-14T04:22:29.037Z,0.00
2023-04-14T04:23:29.047Z,0.00
2023-04-14T04:24:29.032Z,0.00
2023-04-14T04:25:29.119Z,0.00
2023-04-14T04:26:29.008Z,0.00
2023-04-14T04:27:29.018Z,0.00
2023-04-14T04:28:28.987Z,0.00
2023-04-14T04:29:28.969Z,0.00
2023-04-14T04:30:28.981Z,0.00
2023-04-14T04:31:29.123Z,0.00
2023-04-14T04:32:29.070Z,0.00
2023-04-14T04:33:28.944Z,0.00
2023-04-14T04:34:28.918Z,0.00
2023-04-14T04:35:28.931Z,0.00
2023-04-14T04:36:28.922Z,0.00
2023-04-14T04:37:29.018Z,0.00
2023-04-14T04:38:28.902Z,0.00
2023-04-14T04:39:28.867Z,5.62
2023-04-14T04:40:28.860Z,5.62
2023-04-14T04:41:28.853Z,5.62
2023-04-14T04:42:28.830Z,5.62
2023-04-14T04:43:28.833Z,5.62
2023-04-14T04:44:28.832Z,5.62
2023-04-14T04:45:28.814Z,5.62
2023-04-14T04:46:28.820Z,5.62
2023-04-14T04:47:28.836Z,5.62
2023-04-14T04:48:28.761Z,5.62
2023-04-14T04:49:28.780Z,5.62
2023-04-14T04:50:28.791Z,11.25
2023-04-14T04:51:28.758Z,11.25
2023-04-14T04:52:28.750Z,11.25
2023-04-14T04:53:28.714Z,11.25
2023-04-14T04:54:28.721Z,11.25
2023-04-14T04:55:28.801Z,11.25
2023-04-14T04:56:28.679Z,11.25
2023-04-14T04:57:28.681Z,11.25
2023-04-14T04:58:28.665Z,11.25
2023-04-14T04:59:28.674Z,16.88
2023-04-14T05:00:28.659Z,16.88
2023-04-14T05:01:28.675Z,16.88
2023-04-14T05:02:28.728Z,16.88
2023-04-14T05:03:28.677Z,16.88
2023-04-14T05:04:28.622Z,16.88
2023-04-14T05:05:28.612Z,16.88
2023-04-14T05:06:28.624Z,22.50
2023-04-14T05:07:28.565Z,22.50
2023-04-14T05:08:28.576Z,22.50
2023-04-14T05:09:28.568Z,22.50
2023-04-14T05:10:28.640Z,28.12
2023-04-14T05:11:28.546Z,33.75
2023-04-14T05:12:28.517Z,33.75
2023-04-14T05:13:28.511Z,33.75
2023-04-14T05:14:28.509Z,33.75
2023-04-14T05:15:28.552Z,39.38
2023-04-14T05:16:28.492Z,39.38
2023-04-14T05:17:28.464Z,39.38
2023-04-14T05:18:28.461Z,45.00
2023-04-14T05:19:28.440Z,45.00
2023-04-14T05:20:28.428Z,50.62
2023-04-14T05:21:28.430Z,50.62
2023-04-14T05:22:28.431Z,50.62
2023-04-14T05:23:28.422Z,45.00
2023-04-14T05:24:28.403Z,45.00
2023-04-14T05:25:28.379Z,39.38
2023-04-14T05:26:48.684Z,39.38
2023-04-14T05:27:29.388Z,39.38
2023-04-14T05:28:28.352Z,39.38
2023-04-14T05:29:28.351Z,39.38
2023-04-14T05:30:28.324Z,39.38
2023-04-14T05:31:28.403Z,39.38
2023-04-14T05:32:29.191Z,39.38
2023-04-14T05:33:28.306Z,39.38
2023-04-14T05:34:28.294Z,39.38
2023-04-14T05:35:28.272Z,39.38
2023-04-14T05:36:28.271Z,45.00
2023-04-14T05:37:28.256Z,45.00
2023-04-14T05:38:28.261Z,45.00
2023-04-14T05:39:28.234Z,45.00
2023-04-14T05:40:28.240Z,45.00
2023-04-14T05:41:28.218Z,45.00
2023-04-14T05:42:28.265Z,45.00
2023-04-14T05:43:28.181Z,45.00
2023-04-14T05:44:28.236Z,45.00
2023-04-14T05:45:28.988Z,45.00
2023-04-14T05:46:28.243Z,50.62
2023-04-14T05:47:28.213Z,50.62
2023-04-14T05:48:28.150Z,50.62
2023-04-14T05:49:28.129Z,50.62
2023-04-14T05:50:28.129Z,50.62
2023-04-14T05:51:28.102Z,56.25
2023-04-14T05:52:28.126Z,56.25
2023-04-14T05:53:28.089Z,61.88
2023-04-14T05:54:28.075Z,61.88
2023-04-14T05:55:28.078Z,61.88
2023-04-14T05:56:28.325Z,61.88
2023-04-14T05:57:28.067Z,61.88
2023-04-14T05:58:28.056Z,61.88
2023-04-14T05:59:28.014Z,61.88
2023-04-14T06:00:28.018Z,61.88
2023-04-14T06:01:28.006Z,61.88
2023-04-14T06:02:28.151Z,56.25
2023-04-14T06:03:28.274Z,56.25
2023-04-14T06:04:28.037Z,56.25
2023-04-14T06:05:27.985Z,56.25
2023-04-14T06:06:27.962Z,61.88
2023-04-14T06:07:27.936Z,61.88
2023-04-14T06:08:27.932Z,61.88
2023-04-14T06:09:27.929Z,61.88
2023-04-14T06:10:27.923Z,61.88
2023-04-14T06:11:27.902Z,61.88
2023-04-14T06:12:28.671Z,61.88
2023-04-14T06:13:29.902Z,61.88
2023-04-14T06:14:27.875Z,61.88
2023-04-14T06:15:27.881Z,61.88
2023-04-14T06:16:27.888Z,61.88
2023-04-14T06:17:27.890Z,61.88
2023-04-14T06:18:27.843Z,61.88
2023-04-14T06:19:27.805Z,61.88
2023-04-14T06:20:28.524Z,61.88
2023-04-14T06:21:27.794Z,61.88
2023-04-14T06:22:27.785Z,61.88
2023-04-14T06:23:28.033Z,61.88
2023-04-14T06:24:27.753Z,61.88
2023-04-14T06:25:29.316Z,61.88
2023-04-14T06:26:27.752Z,61.88
2023-04-14T06:27:27.732Z,61.88
2023-04-14T06:28:27.985Z,61.88
2023-04-14T06:29:27.715Z,56.25
2023-04-14T06:30:28.058Z,56.25
2023-04-14T06:31:27.776Z,56.25
2023-04-14T06:32:27.707Z,56.25
2023-04-14T06:33:27.677Z,56.25
2023-04-14T06:34:27.648Z,56.25
2023-04-14T06:35:32.956Z,56.25
2023-04-14T06:36:29.656Z,61.88
2023-04-14T06:37:27.618Z,61.88
2023-04-14T06:38:28.884Z,67.50
2023-04-14T06:39:27.596Z,67.50
2023-04-14T06:40:27.611Z,67.50
2023-04-14T06:41:27.608Z,67.50
2023-04-14T06:42:27.653Z,67.50
2023-04-14T06:43:27.551Z,67.50
2023-04-14T06:44:27.549Z,67.50
2023-04-14T06:45:27.589Z,67.50
2023-04-14T06:46:27.952Z,67.50
2023-04-14T06:47:27.543Z,67.50
2023-04-14T06:48:27.516Z,67.50
2023-04-14T06:49:27.489Z,67.50
2023-04-14T06:50:27.484Z,73.12
2023-04-14T06:51:27.574Z,73.12
2023-04-14T06:52:27.474Z,73.12
2023-04-14T06:53:27.462Z,73.12
2023-04-14T06:54:27.447Z,73.12
2023-04-14T06:55:27.435Z,73.12
2023-04-14T06:56:27.425Z,73.12
2023-04-14T06:57:27.420Z,73.12
2023-04-14T06:58:27.446Z,73.12
2023-04-14T06:59:27.386Z,73.12
2023-04-14T07:00:27.399Z,73.12
2023-04-14T07:01:27.410Z,73.12
2023-04-14T07:02:27.505Z,73.12
2023-04-14T07:03:27.424Z,73.12
2023-04-14T07:04:27.376Z,73.12
2023-04-14T07:05:27.324Z,73.12
2023-04-14T07:06:27.328Z,73.12
2023-04-14T07:07:27.331Z,73.12
2023-04-14T07:08:27.284Z,73.12
2023-04-14T07:09:27.316Z,73.12
2023-04-14T07:10:27.289Z,73.12
2023-04-14T07:11:27.295Z,73.12
2023-04-14T07:12:27.254Z,73.12
2023-04-14T07:13:27.230Z,73.12
2023-04-14T07:14:27.320Z,73.12
2023-04-14T07:15:27.232Z,73.12
2023-04-14T07:16:27.260Z,73.12
2023-04-14T07:17:27.252Z,73.12
2023-04-14T07:18:27.180Z,73.12
2023-04-14T07:19:27.186Z,73.12
2023-04-14T07:20:27.225Z,73.12
2023-04-14T07:21:27.149Z,73.12
2023-04-14T07:22:27.152Z,78.75
2023-04-14T07:23:27.911Z,78.75
2023-04-14T07:24:27.122Z,78.75
2023-04-14T07:25:27.110Z,78.75
2023-04-14T07:26:27.095Z,78.75
2023-04-14T07:27:27.087Z,78.75
2023-04-14T07:28:28.591Z,78.75
2023-04-14T07:29:27.056Z,78.75
2023-04-14T07:30:27.114Z,78.75
2023-04-14T07:31:27.061Z,78.75
2023-04-14T07:32:27.073Z,78.75
2023-04-14T07:33:27.134Z,78.75
2023-04-14T07:34:27.018Z,78.75
2023-04-14T07:35:27.063Z,78.75
2023-04-14T07:36:27.004Z,78.75
2023-04-14T07:37:27.036Z,78.75
2023-04-14T07:38:26.986Z,78.75
2023-04-14T07:39:26.956Z,78.75
2023-04-14T07:40:26.953Z,78.75
2023-04-14T07:41:26.945Z,78.75
2023-04-14T07:42:27.230Z,78.75
2023-04-14T07:43:26.975Z,78.75
2023-04-14T07:44:26.968Z,78.75
2023-04-14T07:45:26.908Z,78.75
2023-04-14T07:46:26.984Z,78.75
2023-04-14T07:47:26.903Z,78.75
2023-04-14T07:48:27.881Z,78.75
2023-04-14T07:49:26.863Z,78.75
2023-04-14T07:50:27.040Z,78.75
2023-04-14T07:51:26.835Z,78.75
2023-04-14T07:52:26.826Z,78.75
2023-04-14T07:53:26.839Z,78.75
2023-04-14T07:54:26.809Z,78.75
2023-04-14T07:55:27.554Z,78.75
2023-04-14T07:56:26.781Z,78.75
2023-04-14T07:57:26.781Z,78.75
2023-04-14T07:58:29.073Z,78.75
2023-04-14T07:59:26.768Z,78.75
2023-04-14T08:00:26.745Z,84.38
2023-04-14T08:01:26.746Z,84.38
2023-04-14T08:02:26.814Z,84.38
2023-04-14T08:03:26.967Z,84.38
2023-04-14T08:04:26.796Z,84.38
2023-04-14T08:05:26.727Z,84.38
2023-04-14T08:06:28.669Z,84.38
2023-04-14T08:07:26.663Z,84.38
2023-04-14T08:08:26.670Z,84.38
2023-04-14T08:09:27.409Z,84.38
2023-04-14T08:10:26.669Z,84.38
2023-04-14T08:11:26.630Z,84.38
2023-04-14T08:12:26.623Z,84.38
2023-04-14T08:13:26.600Z,84.38
2023-04-14T08:14:26.591Z,84.38
2023-04-14T08:15:26.568Z,84.38
2023-04-14T08:16:26.682Z,84.38
2023-04-14T08:17:26.599Z,84.38
2023-04-14T08:18:26.551Z,84.38
2023-04-14T08:19:26.534Z,84.38
2023-04-14T08:20:26.530Z,84.38
2023-04-14T08:21:26.509Z,84.38
2023-04-14T08:22:26.500Z,84.38
2023-04-14T08:23:26.505Z,84.38
2023-04-14T08:24:26.525Z,84.38
2023-04-14T08:25:26.478Z,84.38
2023-04-14T08:26:26.481Z,84.38
2023-04-14T08:27:26.461Z,84.38
2023-04-14T08:28:26.445Z,84.38
2023-04-14T08:29:26.433Z,84.38
2023-04-14T08:30:26.422Z,84.38
2023-04-14T08:31:26.495Z,84.38
2023-04-14T08:32:28.607Z,84.38
2023-04-14T08:33:26.400Z,84.38
2023-04-14T08:34:28.432Z,84.38
2023-04-14T08:35:39.386Z,90.00
2023-04-14T08:36:27.370Z,90.00
2023-04-14T08:37:26.338Z,90.00
2023-04-14T08:38:26.619Z,90.00
2023-04-14T08:39:26.310Z,90.00
2023-04-14T08:40:26.320Z,90.00
2023-04-14T08:41:26.583Z,90.00
2023-04-14T08:42:26.295Z,90.00
2023-04-14T08:43:26.295Z,90.00
2023-04-14T08:44:26.365Z,90.00
2023-04-14T08:45:26.293Z,90.00
2023-04-14T08:46:26.334Z,90.00
2023-04-14T08:47:26.275Z,90.00
2023-04-14T08:48:26.258Z,90.00
2023-04-14T08:49:26.232Z,90.00
2023-04-14T08:50:26.231Z,90.00
2023-04-14T08:51:26.985Z,101.25
2023-04-14T08:52:26.202Z,95.62
2023-04-14T08:53:26.197Z,95.62
2023-04-14T08:54:26.171Z,95.62
2023-04-14T08:55:26.166Z,95.62
2023-04-14T08:56:26.175Z,95.62
2023-04-14T08:57:26.192Z,95.62
2023-04-14T08:58:27.072Z,101.25
2023-04-14T08:59:26.114Z,90.00
2023-04-14T09:00:26.096Z,101.25
2023-04-14T09:01:26.139Z,101.25
2023-04-14T09:02:26.155Z,101.25
2023-04-14T09:03:26.282Z,101.25
2023-04-14T09:04:26.262Z,101.25
2023-04-14T09:05:26.050Z,101.25
2023-04-14T09:06:26.045Z,101.25
2023-04-14T09:07:26.575Z,101.25
2023-04-14T09:08:26.015Z,101.25
2023-04-14T09:09:26.021Z,106.88
2023-04-14T09:10:26.007Z,112.50
2023-04-14T09:11:26.000Z,123.75
2023-04-14T09:12:25.996Z,140.62
2023-04-14T09:13:25.973Z,151.88
2023-04-14T09:14:25.960Z,151.88
2023-04-14T09:15:25.939Z,157.50
2023-04-14T09:16:26.238Z,163.12
2023-04-14T09:17:25.964Z,146.25
2023-04-14T09:18:25.919Z,140.62
2023-04-14T09:19:25.911Z,123.75
2023-04-14T09:20:38.813Z,118.12
2023-04-14T09:21:49.686Z,118.12
2023-04-14T09:22:26.878Z,118.12
2023-04-14T09:23:25.869Z,118.12
2023-04-14T09:24:25.845Z,118.12
2023-04-14T09:25:25.842Z,123.75
2023-04-14T09:26:25.823Z,123.75
2023-04-14T09:27:25.804Z,135.00
2023-04-14T09:28:25.867Z,135.00
2023-04-14T09:29:25.793Z,135.00
2023-04-14T09:30:25.804Z,140.62
2023-04-14T09:31:25.824Z,146.25
2023-04-14T09:32:25.962Z,151.88
2023-04-14T09:33:25.753Z,157.50
2023-04-14T09:34:25.809Z,157.50
2023-04-14T09:35:25.738Z,151.88
2023-04-14T09:36:25.753Z,151.88
2023-04-14T09:37:25.717Z,151.88
2023-04-14T09:38:25.699Z,151.88
2023-04-14T09:39:25.698Z,151.88
2023-04-14T09:40:25.694Z,157.50
2023-04-14T09:41:25.682Z,180.00
2023-04-14T09:42:25.653Z,185.62
2023-04-14T09:43:25.647Z,191.25
2023-04-14T09:44:26.324Z,180.00
2023-04-14T09:45:25.632Z,185.62
2023-04-14T09:46:25.657Z,191.25
2023-04-14T09:47:25.622Z,196.88
2023-04-14T09:48:25.660Z,185.62
2023-04-14T09:49:25.578Z,213.75
2023-04-14T09:50:27.003Z,202.50
2023-04-14T09:51:25.579Z,180.00
2023-04-14T09:52:25.560Z,174.38
2023-04-14T09:53:25.540Z,163.12
2023-04-14T09:54:25.539Z,163.12
2023-04-14T09:55:25.528Z,157.50
2023-04-14T09:56:25.781Z,213.75
2023-04-14T09:57:25.487Z,230.62
2023-04-14T09:58:28.267Z,264.38
2023-04-14T09:59:25.487Z,303.75
2023-04-14T10:00:25.466Z,315.00
2023-04-14T10:01:25.769Z,315.00
2023-04-14T10:02:25.545Z,326.25
2023-04-14T10:03:25.591Z,320.62
2023-04-14T10:04:25.468Z,292.50
2023-04-14T10:05:25.406Z,303.75
2023-04-14T10:06:25.420Z,292.50
2023-04-14T10:07:25.381Z,286.88
2023-04-14T10:08:25.632Z,247.50
2023-04-14T10:09:25.374Z,236.25
2023-04-14T10:10:25.347Z,264.38
2023-04-14T10:11:25.351Z,292.50
2023-04-14T10:12:25.327Z,286.88
2023-04-14T10:13:25.351Z,270.00
2023-04-14T10:14:25.315Z,258.75
2023-04-14T10:15:25.347Z,247.50
2023-04-14T10:16:25.386Z,247.50
2023-04-14T10:17:27.143Z,270.00
2023-04-14T10:18:25.260Z,292.50
2023-04-14T10:19:25.279Z,292.50
2023-04-14T10:20:25.468Z,286.88
2023-04-14T10:21:25.236Z,270.00
2023-04-14T10:22:25.240Z,270.00
2023-04-14T10:23:25.512Z,247.50
2023-04-14T10:24:25.214Z,236.25
2023-04-14T10:25:25.209Z,241.88
2023-04-14T10:26:25.200Z,241.88
2023-04-14T10:27:25.180Z,253.12
2023-04-14T10:28:25.169Z,264.38
2023-04-14T10:29:25.434Z,258.75
2023-04-14T10:30:25.158Z,253.12
2023-04-14T10:31:25.229Z,241.88
2023-04-14T10:32:25.142Z,225.00
2023-04-14T10:33:25.126Z,219.38
2023-04-14T10:34:25.088Z,208.12
2023-04-14T10:35:25.089Z,202.50
2023-04-14T10:36:25.106Z,208.12
2023-04-14T10:37:25.100Z,202.50
2023-04-14T10:38:25.071Z,163.12
2023-04-14T10:39:25.068Z,208.12
2023-04-14T10:40:25.084Z,208.12
2023-04-14T10:41:25.040Z,208.12
2023-04-14T10:42:25.065Z,213.75
2023-04-14T10:43:25.004Z,202.50
2023-04-14T10:44:24.997Z,180.00
2023-04-14T10:45:25.051Z,191.25
2023-04-14T10:46:25.002Z,219.38
2023-04-14T10:47:25.221Z,247.50
2023-04-14T10:48:24.948Z,258.75
2023-04-14T10:49:24.962Z,264.38
2023-04-14T10:50:24.997Z,253.12
2023-04-14T10:51:24.923Z,270.00
2023-04-14T10:52:25.072Z,303.75
2023-04-14T10:53:24.906Z,315.00
2023-04-14T10:54:24.883Z,292.50
2023-04-14T10:55:24.881Z,275.62
2023-04-14T10:56:24.862Z,241.88
2023-04-14T10:57:24.902Z,208.12
2023-04-14T10:58:24.844Z,241.88
2023-04-14T10:59:24.837Z,230.62
2023-04-14T11:00:24.824Z,219.38
2023-04-14T11:01:24.827Z,208.12
2023-04-14T11:02:24.931Z,208.12
2023-04-14T11:03:27.464Z,213.75
2023-04-14T11:04:24.916Z,236.25
2023-04-14T11:05:25.032Z,236.25
2023-04-14T11:06:24.766Z,230.62
2023-04-14T11:07:24.738Z,219.38
2023-04-14T11:08:25.087Z,219.38
2023-04-14T11:09:24.735Z,225.00
2023-04-14T11:10:25.493Z,225.00
2023-04-14T11:11:24.710Z,225.00
2023-04-14T11:12:24.701Z,219.38
2023-04-14T11:13:24.676Z,225.00
2023-04-14T11:14:24.668Z,230.62
2023-04-14T11:15:24.963Z,241.88
2023-04-14T11:16:25.235Z,253.12
2023-04-14T11:17:24.695Z,275.62
2023-04-14T11:18:24.652Z,286.88
2023-04-14T11:19:24.627Z,275.62
2023-04-14T11:20:24.620Z,281.25
2023-04-14T11:21:24.602Z,286.88
2023-04-14T11:22:24.614Z,365.62
2023-04-14T11:23:24.578Z,376.88
2023-04-14T11:24:24.827Z,405.00
2023-04-14T11:25:25.185Z,360.00
2023-04-14T11:26:24.552Z,371.25
2023-04-14T11:27:24.549Z,292.50
2023-04-14T11:28:24.533Z,286.88
2023-04-14T11:29:24.540Z,286.88
2023-04-14T11:30:24.523Z,292.50
2023-04-14T11:31:24.853Z,343.12
2023-04-14T11:32:24.695Z,365.62
2023-04-14T11:33:24.484Z,348.75
2023-04-14T11:34:24.461Z,331.88
2023-04-14T11:35:24.461Z,331.88
2023-04-14T11:36:24.438Z,309.38
2023-04-14T11:37:24.422Z,303.75
2023-04-14T11:38:24.557Z,326.25
2023-04-14T11:39:24.391Z,286.88
2023-04-14T11:40:24.401Z,241.88
2023-04-14T11:41:24.398Z,225.00
2023-04-14T11:42:24.357Z,225.00
2023-04-14T11:43:24.476Z,213.75
2023-04-14T11:44:24.353Z,202.50
2023-04-14T11:45:24.329Z,185.62
2023-04-14T11:46:24.368Z,191.25
2023-04-14T11:47:24.644Z,264.38
2023-04-14T11:48:24.292Z,309.38
2023-04-14T11:49:24.318Z,331.88
2023-04-14T11:50:24.309Z,348.75
2023-04-14T11:51:24.286Z,343.12
2023-04-14T11:52:24.257Z,258.75
2023-04-14T11:53:24.267Z,213.75
2023-04-14T11:54:24.275Z,202.50
2023-04-14T11:55:24.230Z,208.12
2023-04-14T11:56:24.257Z,213.75
2023-04-14T11:57:24.220Z,230.62
2023-04-14T11:58:24.206Z,365.62
2023-04-14T11:59:24.186Z,427.50
2023-04-14T12:00:24.174Z,500.62
2023-04-14T12:01:24.991Z,579.38
2023-04-14T12:02:24.273Z,630.00
2023-04-14T12:03:24.347Z,630.00
2023-04-14T12:04:24.373Z,523.12
2023-04-14T12:05:24.206Z,298.12
2023-04-14T12:06:24.121Z,247.50
2023-04-14T12:07:24.145Z,225.00
2023-04-14T12:08:24.096Z,219.38
2023-04-14T12:09:24.853Z,247.50
2023-04-14T12:10:24.085Z,270.00
2023-04-14T12:11:24.051Z,281.25
2023-04-14T12:12:24.080Z,253.12
2023-04-14T12:13:24.063Z,208.12
2023-04-14T12:14:25.380Z,202.50
2023-04-14T12:15:24.015Z,225.00
2023-04-14T12:16:24.061Z,247.50
2023-04-14T12:17:24.043Z,230.62
2023-04-14T12:18:24.054Z,219.38
2023-04-14T12:19:24.006Z,225.00
2023-04-14T12:20:23.957Z,258.75
2023-04-14T12:21:23.974Z,506.25
2023-04-14T12:22:24.023Z,973.12
2023-04-14T12:23:23.970Z,961.88
2023-04-14T12:24:23.918Z,973.12
2023-04-14T12:25:23.931Z,1001.25
2023-04-14T12:26:23.892Z,1029.38
2023-04-14T12:27:23.961Z,1046.25
2023-04-14T12:28:24.206Z,652.50
2023-04-14T12:29:23.882Z,691.88
2023-04-14T12:30:23.851Z,309.38
2023-04-14T12:31:23.881Z,275.62
2023-04-14T12:32:23.846Z,247.50
2023-04-14T12:33:25.592Z,236.25
2023-04-14T12:34:23.831Z,241.88
2023-04-14T12:35:23.827Z,270.00
2023-04-14T12:36:27.416Z,281.25
2023-04-14T12:37:24.784Z,472.50
2023-04-14T12:38:24.045Z,320.62
2023-04-14T12:39:23.977Z,343.12
2023-04-14T12:40:23.751Z,669.38
2023-04-14T12:41:23.763Z,1136.25
2023-04-14T12:42:23.732Z,1260.00
2023-04-14T12:43:23.734Z,1597.50
2023-04-14T12:44:23.996Z,1980.00
2023-04-14T12:45:23.705Z,2036.25
2023-04-14T12:46:23.700Z,315.00
2023-04-14T12:47:23.719Z,337.50
2023-04-14T12:48:23.670Z,1552.50
2023-04-14T12:49:23.941Z,641.25
2023-04-14T12:50:23.641Z,517.50
2023-04-14T12:51:23.639Z,2036.25
2023-04-14T12:52:23.620Z,2019.38
2023-04-14T12:53:23.642Z,1985.62